createdAt,value
2018-05-12T00:00:34.525Z,19.00
2018-05-12T00:03:02.029Z,17.83
2018-05-12T00:05:30.312Z,19.63
2018-05-12T00:07:58.668Z,20.77
2018-05-12T00:10:26.232Z,19.97
2018-05-12T00:12:54.503Z,20.17
2018-05-12T00:15:22.365Z,20.57
2018-05-12T00:17:49.935Z,21.43
2018-05-12T00:20:18.256Z,18.67
2018-05-12T00:22:45.969Z,20.27
2018-05-12T00:25:13.460Z,19.97
2018-05-12T00:27:40.994Z,19.57
2018-05-12T00:30:09.473Z,20.63
2018-05-12T00:32:37.749Z,19.67
2018-05-12T00:35:06.126Z,20.03
2018-05-12T00:37:34.447Z,20.80
2018-05-12T00:40:01.921Z,19.40
2018-05-12T00:42:29.388Z,21.10
2018-05-12T00:44:56.903Z,20.10
2018-05-12T00:47:24.731Z,20.40
2018-05-12T00:49:52.337Z,20.43
2018-05-12T00:52:19.853Z,20.97
2018-05-12T00:54:47.447Z,21.30
2018-05-12T00:57:14.973Z,20.77
2018-05-12T00:59:43.425Z,20.00
2018-05-12T01:02:10.884Z,22.07
2018-05-12T01:04:38.370Z,21.23
2018-05-12T01:07:06.836Z,20.47
2018-05-12T01:09:34.403Z,20.57
2018-05-12T01:12:02.012Z,19.77
2018-05-12T01:14:29.484Z,19.53
2018-05-12T01:16:56.971Z,20.40
2018-05-12T01:19:24.641Z,20.63
2018-05-12T01:21:52.919Z,21.93
2018-05-12T01:24:21.503Z,21.33
2018-05-12T01:26:49.774Z,20.60
2018-05-12T01:29:17.300Z,20.97
2018-05-12T01:31:44.923Z,23.03
2018-05-12T01:34:12.461Z,23.77
2018-05-12T01:36:40.741Z,22.60
2018-05-12T01:39:09.817Z,22.63
2018-05-12T01:41:37.380Z,20.90
2018-05-12T01:44:05.145Z,22.23
2018-05-12T01:46:33.681Z,19.97
2018-05-12T01:49:01.289Z,21.27
2018-05-12T01:51:29.560Z,20.93
2018-05-12T01:53:57.225Z,20.17
2018-05-12T01:56:25.498Z,21.30
2018-05-12T01:58:53.741Z,20.60
2018-05-12T02:01:21.745Z,20.40
2018-05-12T02:03:50.530Z,21.23
2018-05-12T02:06:18.083Z,21.67
2018-05-12T02:08:45.862Z,21.63
2018-05-12T02:11:14.209Z,22.03
2018-05-12T02:13:41.689Z,22.37
2018-05-12T02:16:09.248Z,22.10
2018-05-12T02:18:37.543Z,21.50
2018-05-12T02:21:05.801Z,21.30
2018-05-12T02:23:34.171Z,21.77
2018-05-12T02:26:01.742Z,19.87
2018-05-12T02:28:29.978Z,21.93
2018-05-12T02:30:57.669Z,22.97
2018-05-12T02:33:25.232Z,22.53
2018-05-12T02:35:52.798Z,20.93
2018-05-12T02:38:21.101Z,21.07
2018-05-12T02:40:48.577Z,21.97
2018-05-12T02:43:16.058Z,22.27
2018-05-12T02:45:43.740Z,21.90
2018-05-12T02:48:11.308Z,21.67
2018-05-12T02:50:39.541Z,22.20
2018-05-12T02:53:07.045Z,22.37
2018-05-12T02:55:35.278Z,22.90
2018-05-12T02:58:03.167Z,22.53
2018-05-12T03:00:30.737Z,20.10
2018-05-12T03:02:59.601Z,20.97
2018-05-12T03:05:27.181Z,19.90
2018-05-12T03:07:54.750Z,19.53
2018-05-12T03:10:23.196Z,20.10
2018-05-12T03:12:50.676Z,19.80
2018-05-12T03:15:19.130Z,19.13
2018-05-12T03:17:46.925Z,18.57
2018-05-12T03:20:14.488Z,18.80
2018-05-12T03:22:43.063Z,21.87
2018-05-12T03:25:10.631Z,20.27
2018-05-12T03:27:38.863Z,20.03
2018-05-12T03:30:06.418Z,20.90
2018-05-12T03:32:33.885Z,19.10
2018-05-12T03:35:01.371Z,18.87
2018-05-12T03:37:30.261Z,18.67
2018-05-12T03:39:58.033Z,17.67
2018-05-12T03:42:26.313Z,19.03
2018-05-12T03:44:54.835Z,18.20
2018-05-12T03:47:22.332Z,18.50
2018-05-12T03:49:49.829Z,16.77
2018-05-12T03:52:17.293Z,17.40
2018-05-12T03:54:44.763Z,16.87
2018-05-12T03:57:12.582Z,17.50
2018-05-12T03:59:40.249Z,17.70
2018-05-12T04:02:08.614Z,19.00
2018-05-12T04:04:47.882Z,22.43
2018-05-12T04:07:27.421Z,22.27
2018-05-12T04:10:06.842Z,19.53
2018-05-12T04:12:38.987Z,22.73
2018-05-12T04:15:06.557Z,23.07
2018-05-12T04:17:34.048Z,22.83
2018-05-12T04:20:01.526Z,21.20
2018-05-12T04:22:29.227Z,22.37
2018-05-12T04:24:56.736Z,23.83
2018-05-12T04:27:24.298Z,23.67
2018-05-12T04:29:51.920Z,22.23
2018-05-12T04:32:20.229Z,19.50
2018-05-12T04:34:47.692Z,17.73
2018-05-12T04:37:15.160Z,17.13
2018-05-12T04:39:42.716Z,17.67
2018-05-12T04:42:10.212Z,18.47
2018-05-12T04:44:37.772Z,19.20
2018-05-12T04:47:05.839Z,20.30
2018-05-12T04:49:33.472Z,20.63
2018-05-12T04:52:02.672Z,20.17
2018-05-12T04:54:30.430Z,22.20
2018-05-12T04:56:57.921Z,21.13
2018-05-12T04:59:25.385Z,21.03
2018-05-12T05:01:53.869Z,19.80
2018-05-12T05:04:22.123Z,18.23
2018-05-12T05:06:49.604Z,18.63
2018-05-12T05:09:17.906Z,19.77
2018-05-12T05:11:45.728Z,19.67
2018-05-12T05:14:13.292Z,19.37
2018-05-12T05:16:40.856Z,20.23
2018-05-12T05:19:09.431Z,19.37
2018-05-12T05:21:36.904Z,17.47
2018-05-12T05:24:05.140Z,17.47
2018-05-12T05:26:32.739Z,17.70
2018-05-12T05:29:01.009Z,17.50
2018-05-12T05:31:29.283Z,18.30
2018-05-12T05:33:57.148Z,17.30
2018-05-12T05:36:24.713Z,18.63
2018-05-12T05:38:52.989Z,18.27
2018-05-12T05:41:21.470Z,17.17
2018-05-12T05:43:49.711Z,18.20
2018-05-12T05:46:17.196Z,16.73
2018-05-12T05:48:44.864Z,18.53
2018-05-12T05:51:13.142Z,18.37
2018-05-12T05:53:42.184Z,18.93
2018-05-12T05:56:10.089Z,19.77
2018-05-12T05:58:37.572Z,18.83
2018-05-12T06:01:05.057Z,17.37
2018-05-12T06:03:32.769Z,18.80
2018-05-12T06:06:00.249Z,20.40
2018-05-12T06:08:27.764Z,18.90
2018-05-12T06:10:55.249Z,18.67
2018-05-12T06:13:23.693Z,18.77
2018-05-12T06:15:51.313Z,17.70
2018-05-12T06:18:18.793Z,16.93
2018-05-12T06:20:46.259Z,19.13
2018-05-12T06:23:13.811Z,18.60
2018-05-12T06:25:41.426Z,18.53
2018-05-12T06:28:09.691Z,19.57
2018-05-12T06:30:37.185Z,20.93
2018-05-12T06:33:04.764Z,20.40
2018-05-12T06:35:32.239Z,20.67
2018-05-12T06:37:59.720Z,19.03
2018-05-12T06:40:27.409Z,21.80
2018-05-12T06:42:54.913Z,22.47
2018-05-12T06:45:22.392Z,21.97
2018-05-12T06:47:50.168Z,20.87
2018-05-12T06:50:18.411Z,22.27
2018-05-12T06:52:45.952Z,22.07
2018-05-12T06:55:14.286Z,21.43
2018-05-12T06:57:42.694Z,21.97
2018-05-12T07:00:10.216Z,22.50
2018-05-12T07:02:38.453Z,22.37
2018-05-12T07:05:06.059Z,21.57
2018-05-12T07:07:34.309Z,21.70
2018-05-12T07:10:01.785Z,20.87
2018-05-12T07:12:30.469Z,22.43
2018-05-12T07:14:58.946Z,21.70
2018-05-12T07:17:27.185Z,23.07
2018-05-12T07:19:54.776Z,24.43
2018-05-12T07:22:22.258Z,21.83
2018-05-12T07:24:50.520Z,22.33
2018-05-12T07:27:18.851Z,25.37
2018-05-12T07:29:46.376Z,25.50
2018-05-12T07:32:14.632Z,24.57
2018-05-12T07:34:43.242Z,25.33
2018-05-12T07:37:10.890Z,26.53
2018-05-12T07:39:38.387Z,26.30
2018-05-12T07:42:05.872Z,25.17
2018-05-12T07:44:33.464Z,27.20
2018-05-12T07:47:00.985Z,25.17
2018-05-12T07:49:28.473Z,24.83
2018-05-12T07:51:56.843Z,25.20
2018-05-12T07:54:25.147Z,24.37
2018-05-12T07:56:52.785Z,24.87
2018-05-12T07:59:21.074Z,23.27
2018-05-12T08:01:48.831Z,23.93
2018-05-12T08:04:17.080Z,24.70
2018-05-12T08:06:44.552Z,25.20
2018-05-12T08:09:12.851Z,25.33
2018-05-12T08:11:40.333Z,24.20
2018-05-12T08:14:08.308Z,23.23
2018-05-12T08:16:35.809Z,24.03
2018-05-12T08:19:04.089Z,24.00
2018-05-12T08:21:31.957Z,23.60
2018-05-12T08:24:00.229Z,24.20
2018-05-12T08:26:28.463Z,23.27
2018-05-12T08:28:56.085Z,26.27
2018-05-12T08:31:23.554Z,25.20
2018-05-12T08:33:51.087Z,23.23
2018-05-12T08:36:19.357Z,23.40
2018-05-12T08:38:47.624Z,24.07
2018-05-12T08:41:15.384Z,24.70
2018-05-12T08:43:42.953Z,22.20
2018-05-12T08:46:11.248Z,25.17
2018-05-12T08:48:38.876Z,23.67
2018-05-12T08:51:06.381Z,22.67
2018-05-12T08:53:33.902Z,22.63
2018-05-12T08:56:01.495Z,24.07
2018-05-12T08:58:29.279Z,23.07
2018-05-12T09:00:56.796Z,24.27
2018-05-12T09:03:25.198Z,24.27
2018-05-12T09:05:52.720Z,23.03
2018-05-12T09:08:21.180Z,23.83
2018-05-12T09:10:49.159Z,23.13
2018-05-12T09:13:16.876Z,22.33
2018-05-12T09:15:44.393Z,21.77
2018-05-12T09:18:12.966Z,23.10
2018-05-12T09:20:40.529Z,21.63
2018-05-12T09:23:08.810Z,22.07
2018-05-12T09:25:37.266Z,23.23
2018-05-12T09:28:05.630Z,20.93
2018-05-12T09:30:33.121Z,22.43
2018-05-12T09:33:01.515Z,20.93
2018-05-12T09:35:29.761Z,20.57
2018-05-12T09:37:57.273Z,18.37
2018-05-12T09:40:24.752Z,16.67
2018-05-12T09:42:52.549Z,17.27
2018-05-12T09:45:20.035Z,14.90
2018-05-12T09:47:47.600Z,16.37
2018-05-12T09:50:15.077Z,16.43
2018-05-12T09:52:42.669Z,12.63
2018-05-12T09:55:10.465Z,12.77
2018-05-12T09:57:38.704Z,16.10
2018-05-12T10:00:06.177Z,13.27
2018-05-12T10:02:34.972Z,16.30
2018-05-12T10:05:02.453Z,14.37
2018-05-12T10:07:29.997Z,13.87
2018-05-12T10:09:58.314Z,15.07
2018-05-12T10:12:25.783Z,18.43
2018-05-12T10:14:53.532Z,15.60
2018-05-12T10:17:21.348Z,14.30
2018-05-12T10:19:48.911Z,13.23
2018-05-12T10:22:16.472Z,21.33
2018-05-12T10:24:44.985Z,22.13
2018-05-12T10:27:12.505Z,16.93
2018-05-12T10:29:39.980Z,18.80
2018-05-12T10:32:08.320Z,18.80
2018-05-12T10:34:35.794Z,15.57
2018-05-12T10:37:03.361Z,14.57
2018-05-12T10:39:31.636Z,15.00
2018-05-12T10:42:00.014Z,15.70
2018-05-12T10:44:28.287Z,16.00
2018-05-12T10:46:56.565Z,15.33
2018-05-12T10:49:24.840Z,13.73
2018-05-12T10:51:52.449Z,14.40
2018-05-12T10:54:19.931Z,13.30
2018-05-12T10:56:47.414Z,13.77
2018-05-12T10:59:15.177Z,12.93
2018-05-12T11:01:42.655Z,15.17
2018-05-12T11:04:11.018Z,15.93
2018-05-12T11:06:38.582Z,14.17
2018-05-12T11:09:06.852Z,14.57
2018-05-12T11:11:34.365Z,13.10
2018-05-12T11:14:01.849Z,12.00
2018-05-12T11:16:29.944Z,12.17
2018-05-12T11:18:58.185Z,12.63
2018-05-12T11:21:25.673Z,13.80
2018-05-12T11:23:54.039Z,13.90
2018-05-12T11:26:21.505Z,13.97
2018-05-12T11:28:48.981Z,12.57
2018-05-12T11:31:17.344Z,14.47
2018-05-12T11:33:45.580Z,11.87
2018-05-12T11:36:13.051Z,13.70
2018-05-12T11:38:41.030Z,15.27
2018-05-12T11:41:08.505Z,13.37
2018-05-12T11:43:36.804Z,15.03
2018-05-12T11:46:04.333Z,13.57
2018-05-12T11:48:32.396Z,12.07
2018-05-12T11:50:59.973Z,12.47
2018-05-12T11:53:28.208Z,12.97
2018-05-12T11:55:55.768Z,14.20
2018-05-12T11:58:23.536Z,14.70
2018-05-12T12:00:51.008Z,14.07
2018-05-12T12:03:18.682Z,14.27
2018-05-12T12:05:46.919Z,14.47
2018-05-12T12:08:14.412Z,13.37
2018-05-12T12:10:42.585Z,13.43
2018-05-12T12:13:10.084Z,12.03
2018-05-12T12:15:37.687Z,12.43
2018-05-12T12:18:05.330Z,13.50
2018-05-12T12:20:32.826Z,12.37
2018-05-12T12:23:00.333Z,13.90
2018-05-12T12:25:27.835Z,13.50
2018-05-12T12:27:55.349Z,14.93
2018-05-12T12:30:22.853Z,13.97
2018-05-12T12:32:51.278Z,14.00
2018-05-12T12:35:18.767Z,12.13
2018-05-12T12:37:46.246Z,10.53
2018-05-12T12:40:14.828Z,10.93
2018-05-12T12:42:42.397Z,12.83
2018-05-12T12:45:10.769Z,12.40
2018-05-12T12:47:39.051Z,13.43
2018-05-12T12:50:07.446Z,12.40
2018-05-12T12:52:35.290Z,12.50
2018-05-12T12:55:03.529Z,13.93
2018-05-12T12:57:31.001Z,11.73
2018-05-12T12:59:58.684Z,9.10
2018-05-12T13:02:26.924Z,10.60
2018-05-12T13:04:54.530Z,9.37
2018-05-12T13:07:22.988Z,7.97
2018-05-12T13:09:50.556Z,6.43
2018-05-12T13:12:19.077Z,10.40
2018-05-12T13:14:46.606Z,13.07
2018-05-12T13:17:14.859Z,12.00
2018-05-12T13:19:42.453Z,9.23
2018-05-12T13:22:10.022Z,6.30
2018-05-12T13:24:37.609Z,6.47
2018-05-12T13:27:05.109Z,6.17
2018-05-12T13:29:33.386Z,6.20
2018-05-12T13:32:01.867Z,6.13
2018-05-12T13:34:30.109Z,5.73
2018-05-12T13:36:57.572Z,5.97
2018-05-12T13:39:25.077Z,6.20
2018-05-12T13:41:52.551Z,5.80
2018-05-12T13:44:20.028Z,6.40
2018-05-12T13:46:47.725Z,5.40
2018-05-12T13:49:15.200Z,5.70
2018-05-12T13:51:43.458Z,6.57
2018-05-12T13:54:11.044Z,6.60
2018-05-12T13:56:38.517Z,7.53
2018-05-12T13:59:06.073Z,7.17
2018-05-12T14:01:33.653Z,7.37
2018-05-12T14:04:01.121Z,8.47
2018-05-12T14:06:28.817Z,6.80
2018-05-12T14:08:56.460Z,7.17
2018-05-12T14:11:23.942Z,7.40
2018-05-12T14:13:52.200Z,7.37
2018-05-12T14:16:19.666Z,6.80
2018-05-12T14:18:47.228Z,6.87
2018-05-12T14:21:14.703Z,6.70
2018-05-12T14:23:42.965Z,6.70
2018-05-12T14:26:11.446Z,6.97
2018-05-12T14:28:39.715Z,6.93
2018-05-12T14:31:07.185Z,6.90
2018-05-12T14:33:35.490Z,7.33
2018-05-12T14:36:02.967Z,7.03
2018-05-12T14:38:30.437Z,6.57
2018-05-12T14:40:57.955Z,7.60
2018-05-12T14:43:25.485Z,7.00
2018-05-12T14:45:54.055Z,6.07
2018-05-12T14:48:21.673Z,6.60
2018-05-12T14:50:49.141Z,6.03
2018-05-12T14:53:16.653Z,7.20
2018-05-12T14:55:45.072Z,6.13
2018-05-12T14:58:12.535Z,6.00
2018-05-12T15:00:40.275Z,6.80
2018-05-12T15:03:08.409Z,6.20
2018-05-12T15:05:36.225Z,7.07
2018-05-12T15:08:03.782Z,6.50
2018-05-12T15:10:31.497Z,5.77
2018-05-12T15:12:59.876Z,6.53
2018-05-12T15:15:27.631Z,6.40
2018-05-12T15:17:55.305Z,6.03
2018-05-12T15:20:23.665Z,6.43
2018-05-12T15:22:51.136Z,6.03
2018-05-12T15:25:18.638Z,6.03
2018-05-12T15:27:46.153Z,5.33
2018-05-12T15:30:13.768Z,6.20
2018-05-12T15:32:41.271Z,6.30
2018-05-12T15:35:09.321Z,6.23
2018-05-12T15:37:36.929Z,6.43
2018-05-12T15:40:04.393Z,6.23
2018-05-12T15:42:31.922Z,6.37
2018-05-12T15:45:00.237Z,6.50
2018-05-12T15:47:27.711Z,6.23
2018-05-12T15:49:55.563Z,5.87
2018-05-12T15:52:23.106Z,6.77
2018-05-12T15:54:50.636Z,6.80
2018-05-12T15:57:19.027Z,6.47
2018-05-12T15:59:46.775Z,6.17
2018-05-12T16:02:15.075Z,6.47
2018-05-12T16:04:42.817Z,6.93
2018-05-12T16:07:10.477Z,6.80
2018-05-12T16:09:38.757Z,6.20
2018-05-12T16:12:07.328Z,6.37
2018-05-12T16:14:34.877Z,6.87
2018-05-12T16:17:02.346Z,6.80
2018-05-12T16:19:29.816Z,7.30
2018-05-12T16:21:58.104Z,7.57
2018-05-12T16:24:25.654Z,7.30
2018-05-12T16:26:53.917Z,7.33
2018-05-12T16:29:22.640Z,7.13
2018-05-12T16:31:50.104Z,6.93
2018-05-12T16:34:17.619Z,6.70
2018-05-12T16:36:45.382Z,7.10
2018-05-12T16:39:13.612Z,6.50
2018-05-12T16:41:41.130Z,6.83
2018-05-12T16:44:09.593Z,7.87
2018-05-12T16:46:37.356Z,7.40
2018-05-12T16:49:04.921Z,8.30
2018-05-12T16:51:33.615Z,11.77
2018-05-12T16:54:01.992Z,10.73
2018-05-12T16:56:30.265Z,8.00
2018-05-12T16:58:58.798Z,7.27
2018-05-12T17:01:26.237Z,8.20
2018-05-12T17:03:53.700Z,7.43
2018-05-12T17:06:21.246Z,7.47
2018-05-12T17:08:48.877Z,7.40
2018-05-12T17:11:17.285Z,7.23
2018-05-12T17:13:44.851Z,8.00
2018-05-12T17:16:12.476Z,7.73
2018-05-12T17:18:40.920Z,8.60
2018-05-12T17:21:09.332Z,8.50
2018-05-12T17:23:36.857Z,8.07
2018-05-12T17:26:04.319Z,8.40
2018-05-12T17:28:31.809Z,11.97
2018-05-12T17:31:00.110Z,16.73
2018-05-12T17:33:27.981Z,13.50
2018-05-12T17:35:55.725Z,10.50
2018-05-12T17:38:24.072Z,10.20
2018-05-12T17:40:51.640Z,9.00
2018-05-12T17:43:19.229Z,8.70
2018-05-12T17:45:46.705Z,9.20
2018-05-12T17:48:14.530Z,8.90
2018-05-12T17:50:42.106Z,10.03
2018-05-12T17:53:10.569Z,10.13
2018-05-12T17:55:38.463Z,9.70
2018-05-12T17:58:07.117Z,9.70
2018-05-12T18:00:34.893Z,9.77
2018-05-12T18:03:03.159Z,10.20
2018-05-12T18:05:30.633Z,9.70
2018-05-12T18:07:59.097Z,11.53
2018-05-12T18:10:26.660Z,18.40
2018-05-12T18:12:54.229Z,13.13
2018-05-12T18:15:22.605Z,14.10
2018-05-12T18:17:50.916Z,11.50
2018-05-12T18:20:18.409Z,11.73
2018-05-12T18:22:45.882Z,10.17
2018-05-12T18:25:13.500Z,10.53
2018-05-12T18:27:40.978Z,10.40
2018-05-12T18:30:08.464Z,9.57
2018-05-12T18:32:36.946Z,9.40
2018-05-12T18:35:04.485Z,9.53
2018-05-12T18:37:32.060Z,10.40
2018-05-12T18:39:59.825Z,10.03
2018-05-12T18:42:27.296Z,9.67
2018-05-12T18:44:55.501Z,10.10
2018-05-12T18:47:23.222Z,9.83
2018-05-12T18:49:50.692Z,10.20
2018-05-12T18:52:18.961Z,9.77
2018-05-12T18:54:46.658Z,9.93
2018-05-12T18:57:14.134Z,9.37
2018-05-12T18:59:42.549Z,9.83
2018-05-12T19:02:10.111Z,10.63
2018-05-12T19:04:38.359Z,19.10
2018-05-12T19:07:05.940Z,14.33
2018-05-12T19:09:33.504Z,10.80
2018-05-12T19:12:01.778Z,10.30
2018-05-12T19:14:30.088Z,9.73
2018-05-12T19:16:57.584Z,9.77
2018-05-12T19:19:25.052Z,9.33
2018-05-12T19:21:53.148Z,9.63
2018-05-12T19:24:21.382Z,9.97
2018-05-12T19:26:48.861Z,10.93
2018-05-12T19:29:16.842Z,10.10
2018-05-12T19:31:44.413Z,11.73
2018-05-12T19:34:12.824Z,11.20
2018-05-12T19:36:40.304Z,12.00
2018-05-12T19:39:07.801Z,13.00
2018-05-12T19:41:35.770Z,12.00
2018-05-12T19:44:04.041Z,12.57
2018-05-12T19:46:33.452Z,13.27
2018-05-12T19:49:01.698Z,11.23
2018-05-12T19:51:29.245Z,11.13
2018-05-12T19:53:56.726Z,10.73
2018-05-12T19:56:24.225Z,11.70
2018-05-12T19:58:51.950Z,12.43
2018-05-12T20:01:19.533Z,14.23
2018-05-12T20:03:47.339Z,14.60
2018-05-12T20:06:15.555Z,14.77
2018-05-12T20:08:43.416Z,14.30
2018-05-12T20:11:11.030Z,15.20
2018-05-12T20:13:38.514Z,13.63
2018-05-12T20:16:06.219Z,14.37
2018-05-12T20:18:33.701Z,13.53
2018-05-12T20:21:01.228Z,14.63
2018-05-12T20:23:29.494Z,14.87
2018-05-12T20:25:57.768Z,15.27
2018-05-12T20:28:26.252Z,15.93
2018-05-12T20:30:54.521Z,15.53
2018-05-12T20:33:21.979Z,16.30
2018-05-12T20:35:49.840Z,17.97
2018-05-12T20:38:17.321Z,16.07
2018-05-12T20:40:45.579Z,16.40
2018-05-12T20:43:13.336Z,15.13
2018-05-12T20:45:40.906Z,15.37
2018-05-12T20:48:09.494Z,15.90
2018-05-12T20:50:37.866Z,15.40
2018-05-12T20:53:06.144Z,15.87
2018-05-12T20:55:34.422Z,14.90
2018-05-12T20:58:02.915Z,15.87
2018-05-12T21:00:31.177Z,18.43
2018-05-12T21:02:59.714Z,18.87
2018-05-12T21:05:27.389Z,19.07
2018-05-12T21:07:54.998Z,18.40
2018-05-12T21:10:22.532Z,17.00
2018-05-12T21:12:50.591Z,16.97
2018-05-12T21:15:19.037Z,15.90
2018-05-12T21:17:46.540Z,15.50
2018-05-12T21:20:15.937Z,16.57
2018-05-12T21:22:43.425Z,17.43
2018-05-12T21:25:11.076Z,18.23
2018-05-12T21:27:39.339Z,18.73
2018-05-12T21:30:08.229Z,16.27
2018-05-12T21:32:36.464Z,14.80
2018-05-12T21:35:03.949Z,15.70
2018-05-12T21:37:31.628Z,15.50
2018-05-12T21:39:59.901Z,14.33
2018-05-12T21:42:28.473Z,13.83
2018-05-12T21:44:56.036Z,15.30
2018-05-12T21:47:23.595Z,15.67
2018-05-12T21:49:51.405Z,16.10
2018-05-12T21:52:18.921Z,16.53
2018-05-12T21:54:47.202Z,16.40
2018-05-12T21:57:15.676Z,15.37
2018-05-12T21:59:43.162Z,15.33
2018-05-12T22:02:10.680Z,15.73
2018-05-12T22:04:38.348Z,14.83
2018-05-12T22:07:05.832Z,15.50
2018-05-12T22:09:33.373Z,14.27
2018-05-12T22:12:01.843Z,14.23
2018-05-12T22:14:29.411Z,13.90
2018-05-12T22:16:57.997Z,13.30
2018-05-12T22:19:26.582Z,14.20
2018-05-12T22:21:54.868Z,13.90
2018-05-12T22:24:23.327Z,14.20
2018-05-12T22:26:52.025Z,13.13
2018-05-12T22:29:20.603Z,12.43
2018-05-12T22:31:48.986Z,12.10
2018-05-12T22:34:17.348Z,10.43
2018-05-12T22:36:45.936Z,10.17
2018-05-12T22:39:13.914Z,9.47
2018-05-12T22:41:42.185Z,8.93
2018-05-12T22:44:10.460Z,9.30
2018-05-12T22:46:38.117Z,9.07
2018-05-12T22:49:06.704Z,9.63
2018-05-12T22:51:34.468Z,8.77
2018-05-12T22:54:03.144Z,8.27
2018-05-12T22:56:30.845Z,8.77
2018-05-12T22:58:58.577Z,9.33
2018-05-12T23:01:27.062Z,9.40
2018-05-12T23:03:55.598Z,8.93
2018-05-12T23:06:24.025Z,8.37
2018-05-12T23:08:52.911Z,8.97
2018-05-12T23:11:20.508Z,9.63
2018-05-12T23:13:48.140Z,9.70
2018-05-12T23:16:16.720Z,9.57
2018-05-12T23:18:44.990Z,9.70
2018-05-12T23:21:13.312Z,9.40
2018-05-12T23:23:41.028Z,7.27
2018-05-12T23:26:08.601Z,4.33
2018-05-12T23:28:37.068Z,4.63
2018-05-12T23:31:04.762Z,3.20
2018-05-12T23:33:32.292Z,1.90
2018-05-12T23:36:00.860Z,1.70
2018-05-12T23:38:30.159Z,1.80
2018-05-12T23:40:57.736Z,1.90
2018-05-12T23:43:26.124Z,1.70
2018-05-12T23:45:54.481Z,2.33
2018-05-12T23:48:22.960Z,2.33
2018-05-12T23:50:51.609Z,2.17
2018-05-12T23:53:19.081Z,2.80
2018-05-12T23:55:46.657Z,2.30
2018-05-12T23:58:14.606Z,2.80
